航空気象通報

ウインドサーファーのための航空気象通報による風予報です。

11/17-11/19の航空気象通報

2018年11月17日 23時08分53秒 | お天気
羽田空港
TAF RJTT 171105Z 1712/1818 02012KT 9999 FEW020 SCT040
BECMG 1803/1806 08014KT
BECMG 1812/1815 05010KT
日本時間17日21時-18日12時:020度から12ノットの風
12-15時:風が変化
15-21時:080度から14ノットの風
21-24時:風が変化
19日00-03時:風が変化
03時:050度から10ノットの風


静岡空港
TAF RJNS 171105Z 1712/1818 36004KT 9999 FEW030
BECMG 1800/1803 16008KT
BECMG 1809/1812 34004KT
日本時間17日21時-18日09時:360度から4ノットの風
09-12時:風が変化
12-18時:160度から8ノットの風
18-21時:風が変化
21時-19日03時:340度から4ノットの風


福岡空港
TAF RJFF 171108Z 1712/1818 15005KT 9999 FEW020
BECMG 1800/1803 32005KT
BECMG 1806/1809 14005KT
BECMG 1815/1818 34006KT
TEMPO 1815/1818 4000 -SHRA BR
日本時間17日21時-18日09時:150度から5ノットの風
09-12時:風が変化
12-15時:320度から5ノットの風
15-18時:風が変化
18-24時:140度から5ノットの風
19日00-03時:風が変化
03時:340度から6ノットの風

但し、19日00-03時の間:時々

那覇空港
TAF ROAH 171105Z 1712/1818 04005KT 9999 FEW025 SCT045
BECMG 1800/1803 14010KT
日本時間17日21時-18日09時:040度から5ノットの風
09-12時:風が変化
12時-19日03時:140度から10ノットの風


石垣空港
TAF ROIG 171107Z 1712/1818 06010KT 9999 FEW010 BKN020
TEMPO 1712/1713 4000 SHRA SCT008 BKN015 FEW020CB
TEMPO 1716/1719 4000 SHRA SCT008 BKN015 FEW020CB
BECMG 1803/1806 18005KT
日本時間17日21時-18日12時:060度から10ノットの風
12-15時:風が変化
15時-19日03時:180度から5ノットの風

但し、17日21-22時の間:時々
但し、18日01-04時の間:時々

マウイのカフルイ空港
PHOG 171139Z 1712/1812 04011KT P6SM VCSH SCT025 BKN040 BKN200
FM172000 05015G22KT P6SM -SHRA BKN040 BKN200
FM180600 05011G18KT P6SM SCT040 BKN200 AMD LTD TO VIS AND WIND TIL 171600
ハワイ時間17日02-10時:040度から11ノットの風

10-20時:050度から15ノット、突風22ノット

20時-18日02時:050度から11ノット、突風18ノット


サイパン空港
PGSN 171138Z 1712/1812 07008KT P6SM FEW016 SCT035
FM172200 07015KT P6SM SCT016 SCT035
マリアナ時間17日22時-18日08時:070度から8ノットの風
08-22時:070度から15ノットの風
コメント

11/16-11/18の航空気象通報

2018年11月16日 22時13分20秒 | お天気
羽田空港
TAF RJTT 161105Z 1612/1718 33005KT 9999 FEW030 SCT050
BECMG 1703/1706 03014KT
日本時間16日21時-17日12時:330度から5ノットの風
12-15時:風が変化
15時-18日03時:030度から14ノットの風


静岡空港
TAF RJNS 161105Z 1612/1718 29008KT 9999 FEW030
BECMG 1703/1706 05005KT
BECMG 1712/1715 36005KT
日本時間16日21時-17日12時:290度から8ノットの風
12-15時:風が変化
15-21時:050度から5ノットの風
21-24時:風が変化
18日00-03時:360度から5ノットの風


福岡空港
TAF RJFF 161106Z 1612/1718 16005KT 9999 FEW025
BECMG 1700/1703 34011KT
BECMG 1709/1712 14005KT
日本時間16日21時-17日09時:160度から5ノットの風
09-12時:風が変化
12-18時:340度から11ノットの風
18-21時:風が変化
21時-18日03時:140度から5ノットの風


那覇空港
TAF ROAH 161106Z 1612/1718 33010KT 9999 FEW015 SCT025
BECMG 1709/1712 04006KT
日本時間16日21時-17日18時:330度から10ノットの風
18-21時:風が変化
21時-18日03時:040度から6ノットの風


石垣空港
TAF ROIG 161108Z 1612/1718 04008KT 9999 FEW015 BKN025
TEMPO 1706/1712 4000 SHRA FEW010 BKN020 FEW025CB
日本時間16日21時-18日03時:040度から8ノットの風

但し、17日15-21時の間:時々

マウイのカフルイ空港
PHOG 161131Z 1612/1712 05011KT P6SM VCSH SCT025 SCT040 BKN150
FM162000 05018G25KT P6SM SCT040 BKN150
FM170500 05011G18KT P6SM SCT040 BKN150 AMD LTD TO VIS AND WIND TIL 161600
ハワイ時間16日02-10時:050度から11ノットの風
10-19時:050度から18ノット、突風25ノット
19時-17日02時:050度から11ノット、突風18ノット


サイパン空港
PGSN 161125Z 1612/1712 08010KT P6SM VCSH FEW018 SCT040
FM162200 08015KT P6SM VCSH SCT018 SCT040
マリアナ時間16日22時-17日08時:080度から10ノットの風
08-22時:080度から15ノットの風

コメント

11/13-11/15の航空気象通報

2018年11月13日 23時26分55秒 | お天気

羽田空港
TAF RJTT 131105Z 1312/1418 02016KT 8000 FEW008 BKN015
日本時間13日21時-15日03時:020度から16ノットの風


静岡空港
TAF RJNS 131106Z 1312/1418 36004KT 9999 FEW015 BKN030
BECMG 1403/1406 16008KT
BECMG 1412/1415 36004KT
日本時間13日21時-14日12時:360度から4ノットの風
12-15時:風が変化
15-21時:340度から4ノットの風
21-24時:風が変化
15日00-03時:360度から4ノットの風


福岡空港
TAF RJFF 131108Z 1312/1418 03005KT 9999 FEW030
BECMG 1312/1314 14004KT
BECMG 1403/1406 36010KT
BECMG 1412/1415 14003KT
日本時間13日21時:030度から5ノットの風
21-23時:風が変化
23時-14日12時:140度から4ノットの風
12-15時:風が変化
15-21時:360度から10ノットの風
21-24時:風が変化
15日00-03時:140度から3ノットの風


那覇空港
TAF ROAH 131106Z 1312/1418 35011KT 9999 FEW030
日本時間13日21時-15日03時:350度から11ノットの風


石垣空港
TAF ROIG 131108Z 1312/1418 03016KT 9999 FEW020 BKN045
日本時間13日21時-15日03時:030度から16ノットの風


マウイのカフルイ空港
PHOG 131122Z 1312/1412 06008KT P6SM FEW035
FM132100 04014G20KT P6SM FEW035
FM140600 04008KT P6SM FEW035 AMD LTD TO VIS AND WIND TIL 131600
ハワイ時間13日02-11時:060度から8ノットの風
11-20時:040度から14ノット、突風20ノット
20時-14日02時:040度から8ノットの風


サイパン空港
PGSN 131134Z 1312/1412 06008KT P6SM FEW025
マリアナ時間13日22時-14日22時:060度から8ノットの風
コメント

11/12-11/14の航空気象通報

2018年11月12日 23時47分29秒 | お天気
羽田空港
TAF RJTT 121105Z 1212/1318 36005KT 9000 FEW012 SCT025
BECMG 1300/1303 03015KT
日本時間12日21時-13日09時:360度から5ノットの風
09-12時:風が変化
12時-14日03時:030度から15ノットの風


静岡空港
TAF RJNS 121107Z 1212/1318 26010KT 9999 FEW020 BKN040
BECMG 1219/1221 34004KT
BECMG 1300/1303 06006KT
TEMPO 1300/1303 4000 RA BR
日本時間12日21時-13日04時:260度から10ノットの風
04-06時:風が変化
06-09時:340度から4ノットの風
09-12時:風が変化
12時-14日03時:060度から6ノットの風

但し、13日09-12時の間:時々

福岡空港
TAF RJFF 121105Z 1212/1318 14004KT 9999 FEW015 SCT040
BECMG 1300/1303 02009KT
BECMG 1312/1315 13003KT
日本時間12日21時-13日09時:140度から4ノットの風
09-12時:風が変化
12-21時:020度から9ノットの風
21-24時:風が変化
14日00-03時:130度から3ノットの風


那覇空港
TAF ROAH 121105Z 1212/1318 VRB02KT 9999 FEW015 BKN030
BECMG 1215/1217 01012KT
TEMPO 1216/1219 4000 SHRA FEW010 BKN020 FEW025CB
TEMPO 1300/1303 4000 SHRA
日本時間12日21-24時:風向不定2ノットの風
13日00-02時:風が変化
02時-14日03時:010度から12ノットの風

但し、13日01-04時の間:時々
但し、13日09-12時の間:時々

石垣空港
TAF ROIG 121107Z 1212/1318 VRB02KT 9999 FEW015 SCT030
BECMG 1218/1219 02010KT
日本時間12日21時-13日03時:風向不定2ノットの風
03-04時:風が変化
04時-14日03時:020度から10ノットの風


マウイのカフルイ空港
PHOG 121121Z 1212/1312 05008KT P6SM FEW030
FM122200 05014G20KT P6SM SCT030
FM131000 08008KT P6SM FEW030 AMD LTD TO VIS AND WIND TIL 121600
ハワイ時間12日02-12時:050度から8ノットの風
12-24時:050度から14ノット、突風20ノット
13日00-02時:080度から8ノットの風


サイパン空港
PGSN 121136Z 1212/1312 07013KT P6SM VCSH FEW018 SCT025
マリアナ時間12日22時-13日22時:070度から13ノットの風
コメント

11/11-11/13の航空気象通報

2018年11月11日 23時23分06秒 | お天気
羽田空港
TAF RJTT 111105Z 1112/1218 14008KT 9999 FEW015 BKN030
BECMG 1114/1116 36008KT
TEMPO 1118/1120 4000 SHRA BR FEW005 BKN008
TEMPO 1120/1203 FEW005 BKN008
日本時間11日21-23時:140度から8ノットの風
23時-12日01時:風が変化
01時-13日03時:360度から8ノットの風

但し、11日03-05時の間:時々

静岡空港
TAF RJNS 111106Z 1112/1218 30005KT 9999 FEW008 BKN015
TEMPO 1113/1116 FEW005 BKN008
日本時間11日21時-13日03時:300度から5ノットの風


福岡空港
TAF RJFF 111105Z 1112/1218 14004KT 9999 FEW030 SCT045
BECMG 1200/1203 03007KT
日本時間11日21時-12日09時:140度から4ノットの風
09-12時:風が変化
12時-13日03時:030度から7ノットの風


那覇空港
TAF ROAH 111105Z 1112/1218 08004KT 9999 FEW030
BECMG 1122/1200 14005KT
BECMG 1203/1206 34010KT
TEMPO 1206/1209 4000 SHRA
日本時間11日21時-12日07時:080度から4ノットの風
07-09時:風が変化
09-12時:140度から5ノットの風
12-15時:風が変化
15時-13日03時:340度から10ノットの風

但し、12日15-18時の間:時々

石垣空港
TAF ROIG 111109Z 1112/1218 08006KT 9999 FEW015
日本時間11日21時-13日03時:080度から6ノットの風


マウイのカフルイ空港
PHOG 111120Z 1112/1212 04011KT P6SM SCT025 BKN035 OVC050
FM112000 04018G25KT P6SM SCT025 SCT040
FM120500 04011KT P6SM FEW025 SCT045 AMD LTD TO VIS AND WIND TIL 111600
ハワイ時間11日02-10時:040度から11ノットの風

10-19時:040度から18ノット、突風25ノット
19時-12日02時:040度から11ノットの風


サイパン空港
PGSN 111131Z 1112/1212 07009KT P6SM FEW020
マリアナ時間11日22時-12日22時:070度から9ノットの風
コメント